Terminal Aerodrome Forecast
Issued by NWS

Home | Current Version | Previous Version | Graphics & Text | Print | Product List | Glossary On
Versions: 1 2 3 4 5 6 7 8 9 10 11 12 13 14 15 16
538
FTUS43 KGRB 261142
TAFAUW
TAF
KAUW 261142Z 2612/2712 27012G22KT P6SM SCT025 BKN035
      TEMPO 2612/2615 BKN025
     FM261500 28018G28KT P6SM VCSH BKN030 OVC050
     FM270000 28011G18KT P6SM VCSH BKN025 OVC070=

USA.gov is the U.S. government's official web portal to all federal, state and local government web resources and services.